Scott City, Missouri
Current Conditions -  °F | °C
As of 12:53 PM on Thursday 30 Oct 2014 (Local Time) from KCGI Reporting Station
Clear Clear  
Wind Chill: 59°   Ceiling: Unl
Heat Index: 59°   Visibility: 10mi
Dew Point: 40°   Wind: 5mph
Humidity: 49%   Direction: NA
Pressure: 30.12"   Gusts: NA
Location:  37.22°N, 89.52°W
Report Text: KCGI 301753Z VRB04KT 10SM CLR 15/04 A3012 RMK AO2 SLP201 T01500044 10150 20006 58016
Loading
Personal Weather Stations






























Interactive Weather Map
Tropical Storm Tracking
New forecast layout! Learn more

10-Day Weather Forecast

Advertisements
Track Severe Weather on mobile